Athens, Georgia
Current Conditions -  °F | °C
As of 10:51 AM on Thursday 30 Oct 2014 (Local Time) from KAHN Reporting Station
Clear Clear  
Wind Chill: 60°   Ceiling: Unl
Heat Index: 60°   Visibility: 10mi
Dew Point: 41°   Wind: 8mph
Humidity: 49%   Direction: 70°ENE
Pressure: 30.09"   Gusts: NA
Location:  33.96°N, 83.37°W
Report Text: KAHN 301451Z 07007KT 10SM CLR 16/05 A3009 RMK AO2 SLP188 T01560050 51010
Loading
Personal Weather Stations






























Interactive Weather Map
Tropical Storm Tracking
New forecast layout! Learn more

10-Day Weather Forecast

Advertisements
Track Severe Weather on mobile